Time;durP1;ratioP1;P1;durP2;ratioP2;P2;SDS_P1;SDS_P2;PMS_P1;PMS_P2;Temp;Humidity;BMP_temperature;BMP_pressure;BME280_temperature;BME280_humidity;BME280_pressure;Samples;Min_cycle;Max_cycle;Signal;HPM_P1;HPM_P2
2021/12/09 00:01:12;;;;;;;14.17;5.63;;;;;;;12.93;42.36;100127.03;5042257;28;20455;-72
2021/12/09 00:03:40;;;;;;;12.27;5.43;;;;;;;12.30;43.49;100131.50;5035685;28;20022;-72
2021/12/09 00:06:07;;;;;;;15.77;6.07;;;;;;;12.26;43.53;100135.97;5033665;28;20024;-72
2021/12/09 00:08:36;;;;;;;8.87;5.60;;;;;;;13.20;41.88;100130.53;5050958;28;20242;-74
2021/12/09 00:11:05;;;;;;;17.07;5.40;;;;;;;12.55;42.85;100142.13;5051575;28;20028;-71
2021/12/09 00:13:31;;;;;;;15.60;5.50;;;;;;;12.42;42.65;100140.75;5037589;28;20024;-72
2021/12/09 00:15:57;;;;;;;9.93;4.77;;;;;;;12.86;42.10;100146.47;5051694;28;20059;-72
2021/12/09 00:18:23;;;;;;;11.70;5.40;;;;;;;12.63;42.08;100140.16;5047619;28;20508;-71
2021/12/09 00:20:49;;;;;;;13.20;6.27;;;;;;;12.81;41.84;100153.63;5059102;28;20485;-72
2021/12/09 00:23:14;;;;;;;11.20;5.47;;;;;;;12.30;43.55;100155.94;5070949;28;20036;-72
2021/12/09 00:25:40;;;;;;;12.83;5.23;;;;;;;12.65;42.75;100153.22;5052243;28;20041;-71
2021/12/09 00:28:06;;;;;;;9.67;4.67;;;;;;;13.30;41.15;100149.47;5057837;28;20526;-72
2021/12/09 00:30:32;;;;;;;17.23;6.87;;;;;;;12.10;43.88;100160.88;5052033;28;20496;-72
2021/12/09 00:32:59;;;;;;;9.70;5.37;;;;;;;12.20;43.90;100163.19;5034252;28;20392;-72
2021/12/09 00:35:31;;;;;;;10.87;4.70;;;;;;;12.80;42.31;100154.50;5043140;28;20119;-72
2021/12/09 00:38:07;;;;;;;13.02;4.95;;;;;;;12.93;41.62;100157.63;5037805;28;20124;-72
2021/12/09 00:40:33;;;;;;;11.80;4.90;;;;;;;12.43;42.44;100152.97;5032455;28;20481;-72
2021/12/09 00:42:59;;;;;;;14.33;5.27;;;;;;;12.37;42.88;100149.63;5048885;28;20029;-72
2021/12/09 00:45:25;;;;;;;15.83;5.30;;;;;;;12.29;42.62;100151.59;5050280;28;20507;-72
2021/12/09 00:47:51;;;;;;;9.17;4.37;;;;;;;12.02;43.49;100153.19;5042298;28;20027;-72
2021/12/09 00:50:18;;;;;;;14.97;5.67;;;;;;;12.37;43.81;100149.63;5062108;28;20025;-71
2021/12/09 00:52:45;;;;;;;12.27;5.17;;;;;;;12.43;43.15;100145.09;5031563;28;20544;-72
2021/12/09 00:55:11;;;;;;;11.93;4.67;;;;;;;12.10;43.99;100145.16;5038080;28;20040;-72
2021/12/09 00:57:38;;;;;;;10.43;5.23;;;;;;;11.91;44.32;100143.00;5063300;28;20392;-72
2021/12/09 01:00:08;;;;;;;12.87;5.37;;;;;;;11.98;44.69;100148.94;5031462;28;20068;-72
2021/12/09 01:02:34;;;;;;;12.03;5.60;;;;;;;12.01;43.87;100152.34;5057698;28;20053;-72
2021/12/09 01:04:59;;;;;;;14.33;4.97;;;;;;;11.19;46.88;100149.13;5071533;28;20351;-72
2021/12/09 01:07:25;;;;;;;22.80;5.07;;;;;;;11.94;44.33;100145.56;5068651;28;20076;-72
2021/12/09 01:09:50;;;;;;;15.10;5.20;;;;;;;12.49;43.66;100152.81;5069582;28;20036;-72
2021/12/09 01:12:16;;;;;;;13.10;4.97;;;;;;;12.33;43.33;100150.59;5045958;28;20039;-72
2021/12/09 01:14:41;;;;;;;10.63;4.97;;;;;;;12.01;44.71;100147.13;5050288;28;20028;-71
2021/12/09 01:17:09;;;;;;;15.10;5.03;;;;;;;12.32;43.55;100146.28;5041035;28;20309;-72
2021/12/09 01:19:36;;;;;;;11.40;4.83;;;;;;;12.72;42.89;100147.75;5033190;28;20039;-72
2021/12/09 01:22:02;;;;;;;12.33;5.73;;;;;;;12.13;43.44;100145.06;5038551;28;20369;-72
2021/12/09 01:24:27;;;;;;;13.50;6.20;;;;;;;13.22;40.98;100148.84;5051510;28;20083;-72
2021/12/09 01:26:53;;;;;;;18.73;5.97;;;;;;;12.57;42.31;100150.81;5063536;28;20115;-72
2021/12/09 01:29:28;;;;;;;13.20;4.87;;;;;;;12.49;42.97;100152.81;5031250;28;20053;-72
2021/12/09 01:31:59;;;;;;;11.30;5.40;;;;;;;11.63;44.47;100151.56;5032595;28;20079;-72
2021/12/09 01:34:25;;;;;;;22.83;6.93;;;;;;;12.49;42.75;100155.44;5038478;28;20040;-72
2021/12/09 01:36:51;;;;;;;13.53;5.20;;;;;;;12.76;42.16;100160.75;5047737;28;20024;-72
2021/12/09 01:39:18;;;;;;;18.03;4.90;;;;;;;12.44;42.66;100159.94;5058124;28;20055;-72
2021/12/09 01:41:43;;;;;;;9.77;4.37;;;;;;;12.67;42.27;100162.75;5074838;28;20547;-72
2021/12/09 01:44:08;;;;;;;8.27;4.40;;;;;;;12.73;41.52;100157.34;5057963;28;20111;-72
2021/12/09 01:46:34;;;;;;;22.07;5.43;;;;;;;12.30;43.17;100152.47;5070268;28;20108;-72
2021/12/09 01:48:59;;;;;;;15.07;5.77;;;;;;;12.51;42.91;100156.22;5048148;28;20377;-72
2021/12/09 01:51:25;;;;;;;13.00;5.77;;;;;;;12.82;41.84;100155.34;5038324;28;20067;-72
2021/12/09 01:53:50;;;;;;;11.33;4.30;;;;;;;12.65;42.30;100146.22;5037855;28;20070;-72
2021/12/09 01:56:21;;;;;;;12.47;4.60;;;;;;;13.22;40.93;100138.38;5064202;28;20402;-72
2021/12/09 01:58:49;;;;;;;13.70;4.23;;;;;;;12.97;41.37;100139.13;5038069;28;20083;-72
2021/12/09 02:01:14;;;;;;;9.23;4.53;;;;;;;13.28;40.58;100148.66;5067779;28;20090;-72
2021/12/09 02:03:39;;;;;;;11.43;5.10;;;;;;;12.34;42.47;100157.56;5057512;28;20028;-72
2021/12/09 02:06:05;;;;;;;11.63;4.90;;;;;;;11.55;43.80;100153.50;5066189;28;20055;-72
2021/12/09 02:08:31;;;;;;;6.23;4.10;;;;;;;11.86;43.01;100163.22;5057448;28;20036;-74
2021/12/09 02:10:57;;;;;;;12.57;5.03;;;;;;;11.70;43.80;100158.38;5044835;28;20052;-72
2021/12/09 02:13:22;;;;;;;13.17;4.83;;;;;;;12.30;42.95;100163.78;5056108;28;20033;-72
2021/12/09 02:15:51;;;;;;;12.87;4.77;;;;;;;12.65;41.14;100158.44;5065572;28;20108;-72
2021/12/09 02:18:17;;;;;;;12.40;4.47;;;;;;;12.31;41.92;100160.28;5075162;28;20035;-72
2021/12/09 02:20:42;;;;;;;8.70;4.37;;;;;;;11.70;43.75;100155.75;5054428;28;20484;-72
2021/12/09 02:23:11;;;;;;;13.23;4.70;;;;;;;12.36;42.32;100153.16;5047041;28;20086;-72
2021/12/09 02:25:44;;;;;;;10.23;4.43;;;;;;;11.64;44.02;100148.03;5038276;28;20409;-72
2021/12/09 02:28:11;;;;;;;20.17;5.57;;;;;;;11.61;43.96;100155.97;5045073;28;20043;-72
2021/12/09 02:30:36;;;;;;;13.83;4.70;;;;;;;10.72;45.25;100160.66;5038114;28;20028;-72
2021/12/09 02:33:02;;;;;;;8.13;3.70;;;;;;;11.17;45.39;100157.91;5037901;28;20492;-72
2021/12/09 02:35:27;;;;;;;6.80;3.80;;;;;;;11.09;45.94;100154.63;5038873;28;20451;-72
2021/12/09 02:37:53;;;;;;;13.57;4.53;;;;;;;11.03;46.15;100151.25;5071274;28;20039;-73
2021/12/09 02:40:18;;;;;;;9.80;4.33;;;;;;;11.16;46.03;100153.56;5056693;28;20514;-72
2021/12/09 02:42:43;;;;;;;13.10;4.50;;;;;;;11.13;45.83;100156.28;5074131;28;20077;-71
2021/12/09 02:45:10;;;;;;;10.37;5.40;;;;;;;10.44;48.42;100161.22;5052788;28;20028;-72
2021/12/09 02:47:37;;;;;;;21.53;4.53;;;;;;;11.30;45.56;100156.72;5038292;28;20373;-72
2021/12/09 02:50:04;;;;;;;11.53;4.03;;;;;;;11.11;46.33;100158.03;5053223;28;20028;-72
2021/12/09 02:52:30;;;;;;;16.60;5.57;;;;;;;10.78;47.40;100161.38;5053719;28;20025;-72
2021/12/09 02:54:57;;;;;;;14.90;5.43;;;;;;;10.49;47.25;100165.44;5034147;28;20086;-71
2021/12/09 02:57:23;;;;;;;13.73;5.93;;;;;;;10.30;49.30;100157.13;5052707;28;20021;-71
2021/12/09 02:59:48;;;;;;;7.70;4.50;;;;;;;11.16;47.11;100159.66;5051211;28;20058;-72
2021/12/09 03:02:14;;;;;;;19.40;5.63;;;;;;;11.15;45.79;100154.47;5057232;28;20036;-72
2021/12/09 03:04:47;;;;;;;14.13;4.90;;;;;;;11.99;44.42;100154.16;5034950;28;20392;-72
2021/12/09 03:07:18;;;;;;;15.73;4.67;;;;;;;10.86;45.99;100158.59;5034079;28;20033;-72
2021/12/09 03:09:50;;;;;;;13.43;4.13;;;;;;;11.56;45.32;100159.63;5034542;28;20029;-71
2021/12/09 03:12:22;;;;;;;13.75;4.43;;;;;;;11.62;45.34;100160.31;5045192;28;20032;-72
2021/12/09 03:14:48;;;;;;;14.10;5.38;;;;;;;11.20;45.13;100168.31;5051138;28;20037;-73
2021/12/09 03:17:13;;;;;;;16.13;4.90;;;;;;;12.22;42.71;100160.53;5051066;28;20035;-72
2021/12/09 03:19:39;;;;;;;14.17;4.80;;;;;;;12.23;42.71;100151.78;5043619;28;20040;-71
2021/12/09 03:22:04;;;;;;;17.37;5.20;;;;;;;11.30;44.01;100164.56;5045205;28;20079;-72
2021/12/09 03:24:30;;;;;;;12.13;5.13;;;;;;;11.33;45.62;100168.88;5044348;28;20510;-72
2021/12/09 03:26:58;;;;;;;15.53;4.60;;;;;;;11.83;44.26;100168.53;5051822;28;20071;-72
2021/12/09 03:29:26;;;;;;;10.43;4.43;;;;;;;11.07;45.10;100161.63;5040616;28;20094;-72
2021/12/09 03:31:53;;;;;;;13.53;5.07;;;;;;;11.71;44.17;100153.97;5048545;28;20060;-71
2021/12/09 03:34:20;;;;;;;9.73;4.40;;;;;;;12.09;43.02;100169.63;5051240;28;20047;-72
2021/12/09 03:36:47;;;;;;;11.87;5.57;;;;;;;11.59;44.67;100160.38;5054065;28;20028;-74
2021/12/09 03:39:18;;;;;;;15.57;5.57;;;;;;;11.20;45.46;100176.16;5044115;28;20103;-73
2021/12/09 03:41:46;;;;;;;14.40;4.47;;;;;;;10.96;47.00;100183.66;5068337;28;20030;-72
2021/12/09 03:44:12;;;;;;;15.90;4.40;;;;;;;10.57;47.14;100183.59;5035957;28;20430;-72
2021/12/09 03:46:38;;;;;;;9.67;4.13;;;;;;;11.15;45.51;100180.63;5053906;28;20063;-72
2021/12/09 03:49:05;;;;;;;11.80;4.80;;;;;;;11.57;44.96;100177.91;5052308;28;20025;-71
2021/12/09 03:51:31;;;;;;;17.67;5.30;;;;;;;10.27;48.10;100175.44;5065207;28;20048;-72
2021/12/09 03:53:56;;;;;;;17.03;4.67;;;;;;;10.67;47.79;100179.03;5052308;28;20518;-72
2021/12/09 03:56:22;;;;;;;8.90;4.13;;;;;;;10.63;47.40;100180.88;5070515;28;20204;-73
2021/12/09 03:58:47;;;;;;;17.97;4.43;;;;;;;11.41;45.88;100177.38;5034324;28;20052;-72
2021/12/09 04:01:13;;;;;;;14.43;4.00;;;;;;;11.26;46.16;100183.84;5042606;28;20028;-72
2021/12/09 04:03:39;;;;;;;10.90;4.20;;;;;;;11.22;46.34;100174.34;5069739;28;20039;-72
2021/12/09 04:06:04;;;;;;;19.37;4.00;;;;;;;11.03;47.13;100187.84;5070653;28;20028;-73
2021/12/09 04:08:29;;;;;;;14.00;4.07;;;;;;;12.16;44.83;100187.75;5037785;28;20613;-73
2021/12/09 04:10:55;;;;;;;12.27;4.43;;;;;;;10.72;47.85;100192.88;5040032;28;20028;-71
2021/12/09 04:13:20;;;;;;;12.33;4.50;;;;;;;11.08;46.21;100198.19;5069532;28;20028;-72
2021/12/09 04:15:46;;;;;;;19.27;3.97;;;;;;;11.13;46.50;100198.13;5041870;28;20056;-72
2021/12/09 04:18:12;;;;;;;14.30;4.50;;;;;;;10.94;46.39;100189.81;5032133;28;20072;-74
2021/12/09 04:20:37;;;;;;;9.17;3.97;;;;;;;10.80;47.70;100205.81;5040666;28;20054;-72
2021/12/09 04:23:05;;;;;;;14.43;4.13;;;;;;;11.16;46.67;100204.13;5040336;28;20515;-72
2021/12/09 04:25:31;;;;;;;18.13;5.03;;;;;;;11.07;46.18;100200.84;5040167;28;20496;-72
2021/12/09 04:27:56;;;;;;;16.67;4.37;;;;;;;11.57;45.06;100190.97;5052180;28;20055;-71
2021/12/09 04:30:24;;;;;;;15.60;4.43;;;;;;;11.36;46.18;100192.34;5046249;28;20037;-72
2021/12/09 04:32:53;;;;;;;14.57;4.17;;;;;;;11.78;45.13;100188.72;5043768;28;20039;-72
2021/12/09 04:35:20;;;;;;;13.70;3.63;;;;;;;10.88;47.11;100188.19;5050120;28;20028;-72
2021/12/09 04:37:47;;;;;;;12.63;4.03;;;;;;;11.01;47.03;100179.16;5051849;28;20586;-72
2021/12/09 04:40:13;;;;;;;17.20;3.70;;;;;;;11.53;45.18;100181.47;5045889;28;20102;-72
2021/12/09 04:42:39;;;;;;;16.63;3.97;;;;;;;11.04;45.84;100188.69;5041176;28;20116;-72
2021/12/09 04:45:06;;;;;;;14.63;4.47;;;;;;;11.50;44.99;100194.66;5045909;28;20029;-72
2021/12/09 04:47:31;;;;;;;17.57;4.33;;;;;;;10.71;46.16;100190.31;5061164;28;20108;-72
2021/12/09 04:49:57;;;;;;;11.67;3.70;;;;;;;10.84;47.15;100197.84;5031823;28;20491;-72
2021/12/09 04:52:22;;;;;;;17.77;5.70;;;;;;;10.24;49.22;100196.41;5031488;28;20051;-72
2021/12/09 04:54:48;;;;;;;12.07;3.83;;;;;;;10.90;47.25;100207.31;5048209;28;20047;-72
2021/12/09 04:57:14;;;;;;;18.53;4.37;;;;;;;11.50;45.88;100207.75;5035846;28;20035;-72
2021/12/09 04:59:39;;;;;;;15.13;4.23;;;;;;;10.84;47.66;100212.69;5049895;28;20024;-72
2021/12/09 05:02:11;;;;;;;15.00;3.73;;;;;;;10.83;47.95;100218.81;5047581;28;20091;-72
2021/12/09 05:04:36;;;;;;;13.53;3.60;;;;;;;9.85;49.86;100222.34;5050582;28;20036;-74
2021/12/09 05:07:05;;;;;;;15.97;3.37;;;;;;;10.93;48.04;100222.94;5030821;28;20029;-73
2021/12/09 05:09:37;;;;;;;11.00;3.60;;;;;;;10.98;46.45;100215.84;5032466;28;20127;-73
2021/12/09 05:12:04;;;;;;;8.77;3.58;;;;;;;11.15;45.93;100227.72;5031577;28;20036;-72
2021/12/09 05:14:29;;;;;;;15.63;3.73;;;;;;;10.97;46.65;100224.59;5043235;28;20039;-73
2021/12/09 05:16:55;;;;;;;17.90;3.53;;;;;;;10.92;47.52;100225.59;5050516;28;20036;-72
2021/12/09 05:19:21;;;;;;;18.63;4.27;;;;;;;10.72;46.98;100228.63;5057657;28;20559;-72
2021/12/09 05:21:50;;;;;;;13.43;4.50;;;;;;;11.51;45.23;100225.13;5051203;28;20044;-73
2021/12/09 05:24:16;;;;;;;9.53;3.13;;;;;;;11.73;45.58;100229.88;5041031;28;20496;-72
2021/12/09 05:26:47;;;;;;;12.67;4.33;;;;;;;11.23;46.20;100235.41;5031526;28;20105;-73
2021/12/09 05:29:14;;;;;;;13.40;3.50;;;;;;;12.38;42.92;100229.97;5040049;28;20025;-74
2021/12/09 05:34:24;;;;;;;13.03;4.23;;;;;;;11.88;43.57;100224.25;5061644;28;21243;-73
2021/12/09 05:36:50;;;;;;;13.60;4.93;;;;;;;12.39;42.43;100215.09;5069502;28;20063;-72
2021/12/09 05:39:16;;;;;;;11.90;4.73;;;;;;;11.57;44.55;100214.53;5050883;28;20502;-72
2021/12/09 05:41:43;;;;;;;14.00;3.37;;;;;;;12.41;42.69;100218.53;5044399;28;20086;-72
2021/12/09 05:44:10;;;;;;;19.67;3.73;;;;;;;12.08;43.04;100215.06;5032042;28;20036;-72
2021/12/09 05:46:39;;;;;;;15.73;4.33;;;;;;;10.65;46.62;100218.28;5069988;28;20082;-72
2021/12/09 05:49:06;;;;;;;11.03;3.83;;;;;;;10.48;47.21;100215.13;5067402;28;20047;-72
2021/12/09 05:51:32;;;;;;;18.77;4.03;;;;;;;10.75;47.02;100223.31;5048758;28;20082;-73
2021/12/09 05:53:58;;;;;;;8.13;3.20;;;;;;;11.60;45.47;100219.69;5037565;28;20480;-72
2021/12/09 05:56:23;;;;;;;11.30;3.73;;;;;;;11.35;44.85;100209.81;5031066;28;20497;-72
2021/12/09 05:58:49;;;;;;;10.07;3.80;;;;;;;11.71;44.82;100209.81;5036145;28;20480;-73
2021/12/09 06:01:14;;;;;;;13.73;4.27;;;;;;;10.95;46.29;100226.38;5048305;28;20064;-73
2021/12/09 06:03:40;;;;;;;14.73;3.97;;;;;;;10.78;46.61;100224.09;5033266;28;20033;-73
2021/12/09 06:06:07;;;;;;;12.57;3.43;;;;;;;11.44;45.23;100219.19;5064406;28;20519;-72
2021/12/09 06:08:33;;;;;;;13.37;3.93;;;;;;;10.90;46.47;100235.22;5051001;28;20029;-72
2021/12/09 06:11:00;;;;;;;9.70;3.50;;;;;;;10.82;46.81;100237.97;5066533;28;20024;-73
2021/12/09 06:13:29;;;;;;;10.83;3.20;;;;;;;11.26;45.57;100236.16;5049325;28;20021;-73
2021/12/09 06:15:55;;;;;;;11.67;3.57;;;;;;;10.58;47.57;100241.94;5043525;28;20031;-72
2021/12/09 06:18:20;;;;;;;7.53;3.80;;;;;;;10.85;46.40;100246.63;5047610;28;20036;-72
2021/12/09 06:20:46;;;;;;;17.53;3.77;;;;;;;11.42;45.37;100238.47;5052629;28;20107;-73
2021/12/09 06:23:11;;;;;;;14.97;2.90;;;;;;;11.05;45.67;100229.66;5053336;28;20030;-73
2021/12/09 06:25:37;;;;;;;8.03;3.10;;;;;;;10.91;46.69;100240.41;5037457;28;20564;-73
2021/12/09 06:28:03;;;;;;;9.90;3.47;;;;;;;11.09;45.71;100243.53;5049950;28;20119;-73
2021/12/09 06:30:28;;;;;;;9.20;3.33;;;;;;;10.23;47.66;100241.69;5072087;28;20454;-73
2021/12/09 06:32:54;;;;;;;12.40;3.80;;;;;;;10.82;47.07;100235.38;5039194;28;20041;-73
2021/12/09 06:35:20;;;;;;;8.00;3.33;;;;;;;11.02;46.55;100238.44;5053855;28;20032;-73
2021/12/09 06:37:48;;;;;;;9.40;3.30;;;;;;;10.69;46.77;100229.53;5046613;28;20125;-73
2021/12/09 06:40:18;;;;;;;14.07;4.67;;;;;;;11.26;45.99;100236.16;5050099;28;20024;-72
2021/12/09 06:42:45;;;;;;;18.30;6.07;;;;;;;11.47;45.31;100233.97;5048560;28;20033;-72
2021/12/09 06:45:12;;;;;;;27.60;6.63;;;;;;;11.26;44.74;100240.56;5045179;28;20028;-71
2021/12/09 06:47:38;;;;;;;12.67;4.30;;;;;;;10.94;46.29;100242.13;5041141;28;20029;-72
2021/12/09 06:50:06;;;;;;;13.83;3.63;;;;;;;11.92;44.46;100241.59;5034176;28;20473;-71
2021/12/09 06:52:32;;;;;;;11.63;4.00;;;;;;;12.00;43.99;100233.59;5045978;28;20413;-71
2021/12/09 06:54:57;;;;;;;15.00;5.07;;;;;;;11.67;43.88;100236.97;5054313;28;20024;-71
2021/12/09 06:57:23;;;;;;;13.57;3.97;;;;;;;10.72;46.42;100233.84;5043797;28;20500;-72
2021/12/09 06:59:48;;;;;;;11.47;4.33;;;;;;;11.60;44.97;100240.63;5049974;28;20095;-71
2021/12/09 07:02:13;;;;;;;16.73;4.90;;;;;;;11.08;46.85;100241.81;5063236;28;20044;-72
2021/12/09 07:04:39;;;;;;;12.30;4.67;;;;;;;11.35;45.17;100238.59;5071482;28;20036;-71
2021/12/09 07:07:04;;;;;;;18.73;3.43;;;;;;;10.71;47.89;100242.56;5065878;28;20040;-71
2021/12/09 07:09:30;;;;;;;11.03;3.80;;;;;;;10.61;47.59;100247.97;5054492;28;20039;-72
2021/12/09 07:11:57;;;;;;;14.07;3.63;;;;;;;10.76;48.01;100243.34;5039111;28;20028;-72
2021/12/09 07:14:23;;;;;;;8.87;3.67;;;;;;;10.08;48.53;100252.41;5037257;28;20355;-72
2021/12/09 07:16:48;;;;;;;16.47;4.67;;;;;;;10.63;48.20;100254.06;5052760;28;20021;-72
2021/12/09 07:19:14;;;;;;;9.77;4.43;;;;;;;10.41;48.08;100250.09;5053233;28;20036;-72
2021/12/09 07:21:43;;;;;;;16.13;5.13;;;;;;;11.15;47.10;100248.63;5047190;28;20110;-72
2021/12/09 07:24:08;;;;;;;18.17;5.60;;;;;;;11.56;45.74;100248.59;5033868;28;20036;-72
2021/12/09 07:26:34;;;;;;;15.87;4.50;;;;;;;10.46;47.96;100250.91;5052614;28;20464;-72
2021/12/09 07:29:00;;;;;;;8.17;3.60;;;;;;;10.77;47.38;100258.13;5053541;28;20103;-72
2021/12/09 07:31:27;;;;;;;9.97;4.13;;;;;;;11.10;46.84;100255.72;5040604;28;20395;-71
2021/12/09 07:33:55;;;;;;;11.53;3.93;;;;;;;11.18;46.77;100259.03;5052468;28;20032;-72
2021/12/09 07:36:21;;;;;;;8.73;3.80;;;;;;;10.30;49.19;100255.50;5061725;28;20032;-71
2021/12/09 07:38:46;;;;;;;15.97;5.23;;;;;;;11.15;47.26;100261.72;5073798;28;20023;-72
2021/12/09 07:41:13;;;;;;;8.30;4.03;;;;;;;11.24;46.71;100264.13;5050617;28;20115;-72
2021/12/09 07:43:39;;;;;;;14.30;4.23;;;;;;;11.55;45.99;100273.91;5046953;28;20078;-71
2021/12/09 07:46:04;;;;;;;14.33;3.73;;;;;;;11.66;45.57;100271.91;5036425;28;20024;-71
2021/12/09 07:48:30;;;;;;;16.57;4.40;;;;;;;12.35;44.24;100272.00;5032998;28;20610;-71
2021/12/09 07:50:55;;;;;;;11.50;4.30;;;;;;;12.24;43.95;100284.50;5042400;28;20025;-72
2021/12/09 07:53:22;;;;;;;9.93;3.87;;;;;;;11.66;45.58;100286.75;5033489;28;20032;-72
2021/12/09 07:55:48;;;;;;;8.87;4.20;;;;;;;12.83;42.83;100277.69;5033427;28;20492;-72
2021/12/09 07:58:14;;;;;;;13.33;3.90;;;;;;;12.69;43.26;100286.81;5033341;28;20025;-72
2021/12/09 08:00:39;;;;;;;13.30;5.80;;;;;;;12.42;43.27;100277.06;5049985;28;20807;-72
2021/12/09 08:03:05;;;;;;;14.27;6.00;;;;;;;12.56;44.24;100280.19;5068023;28;20480;-71
2021/12/09 08:05:33;;;;;;;12.10;4.57;;;;;;;11.64;45.42;100284.16;5069691;28;20041;-72
2021/12/09 08:07:58;;;;;;;15.97;4.70;;;;;;;11.61;45.43;100288.59;5036522;28;20078;-72
2021/12/09 08:10:23;;;;;;;9.47;4.17;;;;;;;12.73;44.00;100287.56;5041990;28;20488;-72
2021/12/09 08:12:50;;;;;;;12.97;4.37;;;;;;;11.80;44.99;100294.28;5062807;28;20029;-72
2021/12/09 08:15:17;;;;;;;9.03;3.93;;;;;;;12.26;45.14;100298.41;5032928;28;20108;-72
2021/12/09 08:20:14;;;;;;;6.50;3.63;;;;;;;12.26;45.08;100308.91;5057124;28;20445;-72
2021/12/09 08:22:40;;;;;;;7.87;4.33;;;;;;;12.17;44.21;100309.13;5042166;28;20020;-72
2021/12/09 08:25:08;;;;;;;11.87;4.57;;;;;;;12.08;45.51;100310.22;5033256;28;20036;-72
2021/12/09 08:27:35;;;;;;;15.60;4.43;;;;;;;13.69;42.08;100301.41;5071107;28;20016;-72
2021/12/09 08:30:02;;;;;;;22.70;6.07;;;;;;;13.42;42.74;100307.50;5045429;28;20024;-74
2021/12/09 08:32:28;;;;;;;13.07;6.20;;;;;;;13.10;42.90;100301.44;5068173;28;20135;-72
2021/12/09 08:34:54;;;;;;;14.57;4.93;;;;;;;13.27;41.82;100303.53;5041979;28;20111;-72
2021/12/09 08:37:19;;;;;;;11.80;4.33;;;;;;;12.62;43.02;100293.09;5055416;28;20020;-72
2021/12/09 08:39:45;;;;;;;11.87;4.43;;;;;;;12.69;42.83;100299.94;5068522;28;20036;-71
2021/12/09 08:42:11;;;;;;;11.87;5.20;;;;;;;13.14;42.67;100303.06;5036398;28;20028;-72
2021/12/09 08:44:36;;;;;;;10.90;5.03;;;;;;;13.54;41.81;100308.00;5055774;28;20431;-72
2021/12/09 08:47:02;;;;;;;9.60;4.87;;;;;;;12.58;43.11;100304.56;5051293;28;20028;-72
2021/12/09 08:49:28;;;;;;;11.37;4.33;;;;;;;13.02;42.26;100313.00;5052401;28;20020;-72
2021/12/09 08:51:53;;;;;;;12.43;4.93;;;;;;;13.36;42.14;100309.41;5042931;28;20059;-72
2021/12/09 08:54:19;;;;;;;13.03;4.67;;;;;;;13.17;43.16;100314.31;5058105;28;20029;-72
2021/12/09 08:56:50;;;;;;;16.70;7.90;;;;;;;13.82;41.86;100311.53;5067026;28;20024;-72
2021/12/09 08:59:25;;;;;;;13.73;4.90;;;;;;;14.40;40.98;100314.88;5044024;28;20625;-72
2021/12/09 09:01:51;;;;;;;16.03;5.17;;;;;;;13.89;41.62;100318.31;5001476;28;20036;-72
2021/12/09 09:04:17;;;;;;;15.47;4.90;;;;;;;13.72;41.87;100311.84;5045401;28;20115;-72
2021/12/09 09:06:54;;;;;;;12.93;5.53;;;;;;;13.83;41.80;100318.50;5041992;28;20041;-71
2021/12/09 09:09:20;;;;;;;13.60;4.07;;;;;;;14.07;42.17;100307.19;5030311;28;20029;-72
2021/12/09 09:11:45;;;;;;;10.13;5.47;;;;;;;13.95;41.47;100312.84;5048102;28;20110;-72
2021/12/09 09:14:11;;;;;;;8.97;4.20;;;;;;;13.39;43.70;100319.84;5045029;28;20057;-71
2021/12/09 09:16:38;;;;;;;9.80;3.83;;;;;;;14.12;41.80;100314.06;5061293;28;20069;-71
2021/12/09 09:19:04;;;;;;;10.07;4.50;;;;;;;13.78;42.88;100320.41;5030577;28;20029;-72
2021/12/09 09:21:31;;;;;;;15.53;4.60;;;;;;;14.34;41.76;100314.22;5044416;28;20049;-72
2021/12/09 09:23:57;;;;;;;11.63;4.83;;;;;;;13.81;43.33;100315.09;5011759;28;20477;-72
2021/12/09 09:26:22;;;;;;;20.20;5.53;;;;;;;13.51;43.79;100323.84;5011275;28;20025;-72
2021/12/09 09:28:48;;;;;;;15.00;5.10;;;;;;;13.67;44.59;100329.50;5015447;28;20059;-71
2021/12/09 09:31:14;;;;;;;15.03;4.63;;;;;;;13.09;45.82;100328.56;5030843;28;20033;-72
2021/12/09 09:33:39;;;;;;;14.07;4.93;;;;;;;12.91;46.30;100325.53;5048355;28;20048;-72
2021/12/09 09:36:06;;;;;;;12.77;4.70;;;;;;;13.07;45.72;100318.13;5017422;28;20065;-70
2021/12/09 09:38:32;;;;;;;12.03;4.50;;;;;;;13.41;45.67;100311.91;5016023;28;20033;-73
2021/12/09 09:41:10;;;;;;;19.50;5.47;;;;;;;13.80;45.37;100310.72;5031784;28;20044;-73
2021/12/09 09:46:17;;;;;;;23.20;6.80;;;;;;;13.36;46.19;100314.66;5047841;28;20488;-73
2021/12/09 09:48:43;;;;;;;;;;;;;;;13.91;44.70;100322.59;5020994;28;20465;-73
2021/12/09 09:51:09;;;;;;;13.97;5.53;;;;;;;14.02;43.87;100321.41;5013248;28;19913;-71
2021/12/09 09:53:36;;;;;;;14.00;5.80;;;;;;;13.53;46.14;100323.78;5020666;28;20047;-73
2021/12/09 09:56:08;;;;;;;13.47;5.60;;;;;;;14.32;43.55;100327.41;5023988;28;20087;-73
2021/12/09 09:58:33;;;;;;;17.50;5.13;;;;;;;13.31;46.38;100340.16;5016071;28;20457;-73
2021/12/09 10:00:59;;;;;;;20.43;5.50;;;;;;;13.28;46.22;100335.00;5017340;28;20016;-73
2021/12/09 10:03:29;;;;;;;11.23;4.23;;;;;;;12.82;47.40;100333.69;5017352;28;20064;-73
2021/12/09 10:05:57;;;;;;;16.10;5.77;;;;;;;14.00;44.89;100337.22;5030245;28;20029;-73
2021/12/09 10:08:22;;;;;;;15.40;6.00;;;;;;;13.25;46.66;100329.84;5041885;28;20415;-73
2021/12/09 10:10:48;;;;;;;11.03;4.60;;;;;;;12.87;46.89;100329.16;5035157;28;20491;-72
2021/12/09 10:13:15;;;;;;;13.27;5.67;;;;;;;13.33;47.21;100330.47;5034662;28;20029;-73
2021/12/09 10:15:47;;;;;;;19.63;6.07;;;;;;;13.33;46.07;100330.47;5040850;28;20439;-73
2021/12/09 10:18:30;;;;;;;15.63;6.47;;;;;;;13.48;46.40;100328.34;5030282;28;20029;-73
2021/12/09 10:20:55;;;;;;;19.63;7.03;;;;;;;13.37;46.32;100326.88;5032824;28;20076;-73
2021/12/09 10:23:30;;;;;;;17.03;5.80;;;;;;;13.71;45.75;100325.88;5050998;28;20021;-73
2021/12/09 10:26:13;;;;;;;21.77;6.73;;;;;;;13.81;46.00;100322.97;5046638;28;20029;-73
2021/12/09 10:28:40;;;;;;;15.35;6.30;;;;;;;13.23;46.56;100321.16;5044104;28;20531;-73
2021/12/09 10:31:35;;;;;;;21.50;6.93;;;;;;;13.09;48.23;100333.81;5032982;28;20037;-73
2021/12/09 10:34:14;;;;;;;20.33;7.17;;;;;;;13.54;46.77;100329.00;5042965;28;20049;-72
2021/12/09 10:36:43;;;;;;;25.60;8.70;;;;;;;13.60;47.12;100325.34;5035281;28;20526;-72
2021/12/09 10:39:29;;;;;;;17.73;8.03;;;;;;;14.53;45.54;100319.72;5047321;28;20103;-73
2021/12/09 10:41:57;;;;;;;18.27;7.20;;;;;;;13.56;46.18;100331.59;5041660;28;20025;-73
2021/12/09 10:44:39;;;;;;;25.17;7.53;;;;;;;13.00;47.63;100322.66;5038865;28;20573;-72
2021/12/09 10:47:21;;;;;;;26.07;7.13;;;;;;;13.64;47.14;100324.34;5048567;28;20052;-73
2021/12/09 10:50:02;;;;;;;;;;;;;;;14.20;45.79;100317.31;5036619;28;20037;-72
2021/12/09 10:52:43;;;;;;;17.83;6.63;;;;;;;13.53;46.51;100321.16;5035464;28;19913;-73
2021/12/09 10:55:13;;;;;;;26.47;7.67;;;;;;;14.04;46.10;100312.56;5036154;28;20033;-73
2021/12/09 10:57:40;;;;;;;17.87;7.30;;;;;;;13.60;47.85;100306.97;5037378;28;20414;-73
2021/12/09 11:00:28;;;;;;;22.30;8.37;;;;;;;14.59;44.68;100303.72;5046457;28;20017;-73
2021/12/09 11:03:16;;;;;;;25.63;10.90;;;;;;;13.26;47.99;100307.06;5049391;28;20037;-73
2021/12/09 11:05:46;;;;;;;20.43;9.43;;;;;;;13.55;47.24;100303.63;5033458;28;20482;-72
2021/12/09 11:08:24;;;;;;;20.37;8.90;;;;;;;13.66;47.99;100306.75;5038134;28;20424;-73
2021/12/09 11:11:07;;;;;;;21.77;8.23;;;;;;;13.78;47.06;100316.03;5039796;28;20091;-74
2021/12/09 11:13:37;;;;;;;;;;;;;;;14.50;45.73;100298.78;5071664;28;20028;-73
2021/12/09 11:16:05;;;;;;;29.37;9.23;;;;;;;14.60;45.95;100300.16;5045905;28;19917;-72
2021/12/09 11:18:35;;;;;;;20.83;8.73;;;;;;;13.10;47.87;100301.44;5032940;28;20075;-73
2021/12/09 11:21:05;;;;;;;23.87;8.97;;;;;;;13.56;47.37;100305.34;5031623;28;20791;-73
2021/12/09 11:23:41;;;;;;;21.70;8.80;;;;;;;13.72;47.78;100309.22;5034293;28;20035;-73
2021/12/09 11:26:24;;;;;;;26.50;10.20;;;;;;;13.49;48.34;100309.03;5049725;28;20037;-73
2021/12/09 11:29:12;;;;;;;30.00;11.45;;;;;;;13.94;47.86;100289.25;5052873;28;20607;-74